createdAt,value
2018-07-09T00:01:02.741Z,79.50
2018-07-09T00:03:31.020Z,79.00
2018-07-09T00:05:59.292Z,79.70
2018-07-09T00:08:27.552Z,79.80
2018-07-09T00:10:58.653Z,80.60
2018-07-09T00:13:27.477Z,81.10
2018-07-09T00:15:56.033Z,80.00
2018-07-09T00:18:24.321Z,80.00
2018-07-09T00:20:52.604Z,81.20
2018-07-09T00:23:20.860Z,81.20
2018-07-09T00:25:49.933Z,81.50
2018-07-09T00:28:18.941Z,82.20
2018-07-09T00:30:47.278Z,81.60
2018-07-09T00:33:16.208Z,81.80
2018-07-09T00:35:44.589Z,81.50
2018-07-09T00:38:12.880Z,81.70
2018-07-09T00:40:41.139Z,81.60
2018-07-09T00:43:09.400Z,81.80
2018-07-09T00:45:37.665Z,82.40
2018-07-09T00:48:06.092Z,82.70
2018-07-09T00:50:34.365Z,82.70
2018-07-09T00:53:02.636Z,82.70
2018-07-09T00:55:31.067Z,82.70
2018-07-09T00:57:59.397Z,82.50
2018-07-09T01:00:27.653Z,82.00
2018-07-09T01:02:55.913Z,82.20
2018-07-09T01:05:24.204Z,82.40
2018-07-09T01:07:52.473Z,82.40
2018-07-09T01:10:20.737Z,82.40
2018-07-09T01:12:48.976Z,82.20
2018-07-09T01:15:17.224Z,82.40
2018-07-09T01:17:45.500Z,82.20
2018-07-09T01:20:13.787Z,82.40
2018-07-09T01:22:42.060Z,82.50
2018-07-09T01:25:10.380Z,82.50
2018-07-09T01:27:38.693Z,82.40
2018-07-09T01:30:12.225Z,82.20
2018-07-09T01:32:40.793Z,82.00
2018-07-09T01:35:09.988Z,82.20
2018-07-09T01:37:38.983Z,81.80
2018-07-09T01:40:07.323Z,81.90
2018-07-09T01:42:35.811Z,81.80
2018-07-09T01:45:04.163Z,81.50
2018-07-09T01:47:32.474Z,81.80
2018-07-09T01:50:00.848Z,81.90
2018-07-09T01:52:29.324Z,81.40
2018-07-09T01:54:57.571Z,82.00
2018-07-09T01:57:25.825Z,82.40
2018-07-09T01:59:54.221Z,82.40
2018-07-09T02:02:22.487Z,82.70
2018-07-09T02:04:50.765Z,83.00
2018-07-09T02:07:19.069Z,82.70
2018-07-09T02:09:47.356Z,83.00
2018-07-09T02:12:15.644Z,83.80
2018-07-09T02:14:44.093Z,83.50
2018-07-09T02:17:12.351Z,83.50
2018-07-09T02:19:40.612Z,82.90
2018-07-09T02:22:08.864Z,83.00
2018-07-09T02:24:37.119Z,83.40
2018-07-09T02:27:05.432Z,83.60
2018-07-09T02:29:33.691Z,83.70
2018-07-09T02:32:01.966Z,83.60
2018-07-09T02:34:30.236Z,83.60
2018-07-09T02:36:58.522Z,83.60
2018-07-09T02:39:26.788Z,83.50
2018-07-09T02:41:55.152Z,83.20
2018-07-09T02:44:23.592Z,82.50
2018-07-09T02:46:51.913Z,82.50
2018-07-09T02:49:20.200Z,83.50
2018-07-09T02:51:48.688Z,82.60
2018-07-09T02:54:17.292Z,82.00
2018-07-09T02:56:45.692Z,83.20
2018-07-09T02:59:13.981Z,83.90
2018-07-09T03:01:42.240Z,83.90
2018-07-09T03:04:10.512Z,83.20
2018-07-09T03:06:38.763Z,84.20
2018-07-09T03:09:07.385Z,84.30
2018-07-09T03:11:35.942Z,84.70
2018-07-09T03:14:04.213Z,84.70
2018-07-09T03:16:32.464Z,84.50
2018-07-09T03:19:00.796Z,84.90
2018-07-09T03:21:28.996Z,85.10
2018-07-09T03:23:57.260Z,85.10
2018-07-09T03:26:25.541Z,84.60
2018-07-09T03:28:53.829Z,84.70
2018-07-09T03:31:22.145Z,84.80
2018-07-09T03:33:50.559Z,85.30
2018-07-09T03:36:18.800Z,85.40
2018-07-09T03:38:47.055Z,85.80
2018-07-09T03:41:15.317Z,85.90
2018-07-09T03:43:43.573Z,85.90
2018-07-09T03:46:11.825Z,85.90
2018-07-09T03:48:40.080Z,86.10
2018-07-09T03:51:08.367Z,86.30
2018-07-09T03:53:36.615Z,86.40
2018-07-09T03:56:04.879Z,86.00
2018-07-09T03:58:33.115Z,85.40
2018-07-09T04:01:01.377Z,84.90
2018-07-09T04:03:29.624Z,84.50
2018-07-09T04:05:57.953Z,83.50
2018-07-09T04:08:26.207Z,83.00
2018-07-09T04:10:54.464Z,82.10
2018-07-09T04:13:22.889Z,81.50
2018-07-09T04:15:51.131Z,81.00
2018-07-09T04:18:22.779Z,80.90
2018-07-09T04:20:57.717Z,80.70
2018-07-09T04:23:25.908Z,80.20
2018-07-09T04:25:54.168Z,79.30
2018-07-09T04:28:22.592Z,79.30
2018-07-09T04:30:50.936Z,79.40
2018-07-09T04:33:19.662Z,79.60
2018-07-09T04:35:47.967Z,78.90
2018-07-09T04:38:16.247Z,78.80
2018-07-09T04:40:44.516Z,77.30
2018-07-09T04:43:12.847Z,77.00
2018-07-09T04:45:41.093Z,77.60
2018-07-09T04:48:09.360Z,77.20
2018-07-09T04:50:37.599Z,76.80
2018-07-09T04:53:05.856Z,76.40
2018-07-09T04:55:34.098Z,75.90
2018-07-09T04:58:02.366Z,75.80
2018-07-09T05:00:30.615Z,75.10
2018-07-09T05:02:58.859Z,74.90
2018-07-09T05:05:27.108Z,74.30
2018-07-09T05:07:55.377Z,74.40
2018-07-09T05:10:23.659Z,73.70
2018-07-09T05:12:51.903Z,72.30
2018-07-09T05:15:20.174Z,71.70
2018-07-09T05:17:48.458Z,70.70
2018-07-09T05:20:16.732Z,69.10
2018-07-09T05:22:45.029Z,68.60
2018-07-09T05:25:13.281Z,68.90
2018-07-09T05:27:41.566Z,69.90
2018-07-09T05:30:09.832Z,67.90
2018-07-09T05:32:38.093Z,66.40
2018-07-09T05:35:06.736Z,65.70
2018-07-09T05:37:35.000Z,65.50
2018-07-09T05:40:03.399Z,64.80
2018-07-09T05:42:31.616Z,67.00
2018-07-09T05:44:59.877Z,68.50
2018-07-09T05:47:28.210Z,66.40
2018-07-09T05:49:56.661Z,68.20
2018-07-09T05:52:24.921Z,66.80
2018-07-09T05:54:53.184Z,66.80
2018-07-09T05:57:21.489Z,64.40
2018-07-09T05:59:49.744Z,65.10
2018-07-09T06:02:18.017Z,65.30
2018-07-09T06:04:46.295Z,62.90
2018-07-09T06:07:14.552Z,60.60
2018-07-09T06:09:42.828Z,62.00
2018-07-09T06:12:11.144Z,62.70
2018-07-09T06:14:39.416Z,62.70
2018-07-09T06:17:08.140Z,64.80
2018-07-09T06:19:36.461Z,66.50
2018-07-09T06:22:04.707Z,67.00
2018-07-09T06:24:33.080Z,68.30
2018-07-09T06:27:01.337Z,68.00
2018-07-09T06:29:29.620Z,68.00
2018-07-09T06:31:57.893Z,67.40
2018-07-09T06:34:26.140Z,65.80
2018-07-09T06:36:54.536Z,67.60
2018-07-09T06:39:22.825Z,65.00
2018-07-09T06:41:51.256Z,64.20
2018-07-09T06:44:19.529Z,63.40
2018-07-09T06:46:47.809Z,64.40
2018-07-09T06:49:16.085Z,64.40
2018-07-09T06:51:44.337Z,64.70
2018-07-09T06:54:12.596Z,63.50
2018-07-09T06:56:40.844Z,62.70
2018-07-09T06:59:09.165Z,62.80
2018-07-09T07:01:37.392Z,61.20
2018-07-09T07:04:05.710Z,63.40
2018-07-09T07:06:33.975Z,60.80
2018-07-09T07:09:02.309Z,63.80
2018-07-09T07:11:30.534Z,61.50
2018-07-09T07:13:58.793Z,62.00
2018-07-09T07:16:27.048Z,62.60
2018-07-09T07:18:55.313Z,60.20
2018-07-09T07:21:23.599Z,59.70
2018-07-09T07:23:51.847Z,61.70
2018-07-09T07:26:20.114Z,61.40
2018-07-09T07:28:48.402Z,58.00
2018-07-09T07:31:16.691Z,57.80
2018-07-09T07:33:44.954Z,57.90
2018-07-09T07:36:13.226Z,58.60
2018-07-09T07:38:41.510Z,58.80
2018-07-09T07:41:09.824Z,57.70
2018-07-09T07:43:38.098Z,58.40
2018-07-09T07:46:06.369Z,57.30
2018-07-09T07:48:34.649Z,56.10
2018-07-09T07:51:02.953Z,56.00
2018-07-09T07:53:31.216Z,55.20
2018-07-09T07:55:59.551Z,55.30
2018-07-09T07:58:27.775Z,54.90
2018-07-09T08:00:56.132Z,54.80
2018-07-09T08:03:24.434Z,54.60
2018-07-09T08:05:52.721Z,54.80
2018-07-09T08:08:20.982Z,54.10
2018-07-09T08:10:49.432Z,54.20
2018-07-09T08:13:27.984Z,54.50
2018-07-09T08:15:46.103Z,51.30
2018-07-09T08:18:14.394Z,52.00
2018-07-09T08:20:42.664Z,51.30
2018-07-09T08:23:10.939Z,51.00
2018-07-09T08:25:39.791Z,51.10
2018-07-09T08:28:07.977Z,49.80
2018-07-09T08:30:36.230Z,50.50
2018-07-09T08:33:04.530Z,50.20
2018-07-09T08:35:32.747Z,47.70
2018-07-09T08:38:01.051Z,50.70
2018-07-09T08:40:29.313Z,48.90
2018-07-09T08:42:57.563Z,47.80
2018-07-09T08:45:25.818Z,49.60
2018-07-09T08:47:54.099Z,49.40
2018-07-09T08:50:22.378Z,51.30
2018-07-09T08:52:50.640Z,47.10
2018-07-09T08:55:18.933Z,45.20
2018-07-09T08:57:47.210Z,46.30
2018-07-09T09:00:15.472Z,48.40
2018-07-09T09:02:43.756Z,48.20
2018-07-09T09:05:12.035Z,43.90
2018-07-09T09:07:40.296Z,44.90
2018-07-09T09:10:08.635Z,45.20
2018-07-09T09:12:36.820Z,44.80
2018-07-09T09:15:05.084Z,46.20
2018-07-09T09:17:33.355Z,45.90
2018-07-09T09:20:01.621Z,44.80
2018-07-09T09:22:29.933Z,45.00
2018-07-09T09:24:58.179Z,43.30
2018-07-09T09:27:26.536Z,42.80
2018-07-09T09:29:55.008Z,43.10
2018-07-09T09:32:23.280Z,43.90
2018-07-09T09:34:51.569Z,44.20
2018-07-09T09:37:19.891Z,43.30
2018-07-09T09:39:48.111Z,42.50
2018-07-09T09:42:16.412Z,42.40
2018-07-09T09:44:44.675Z,43.00
2018-07-09T09:47:12.915Z,41.60
2018-07-09T09:49:41.193Z,42.00
2018-07-09T09:52:09.450Z,41.70
2018-07-09T09:54:37.728Z,42.30
2018-07-09T09:57:06.041Z,43.40
2018-07-09T09:59:34.321Z,41.50
2018-07-09T10:02:02.612Z,42.40
2018-07-09T10:04:31.311Z,42.60
2018-07-09T10:06:59.593Z,41.60
2018-07-09T10:09:27.851Z,42.80
2018-07-09T10:11:56.108Z,42.30
2018-07-09T10:14:24.380Z,41.10
2018-07-09T10:16:52.703Z,41.20
2018-07-09T10:19:20.922Z,43.80
2018-07-09T10:21:49.196Z,43.70
2018-07-09T10:24:17.524Z,42.40
2018-07-09T10:26:45.793Z,41.60
2018-07-09T10:29:14.048Z,40.90
2018-07-09T10:31:42.455Z,41.20
2018-07-09T10:34:10.915Z,41.60
2018-07-09T10:36:39.292Z,41.00
2018-07-09T10:39:07.705Z,40.60
2018-07-09T10:41:36.107Z,39.80
2018-07-09T10:44:04.463Z,41.20
2018-07-09T10:46:32.868Z,40.00
2018-07-09T10:49:01.212Z,39.90
2018-07-09T10:51:29.541Z,41.00
2018-07-09T10:53:58.053Z,38.80
2018-07-09T10:56:26.586Z,39.20
2018-07-09T10:58:54.968Z,37.30
2018-07-09T11:01:23.340Z,38.30
2018-07-09T11:03:51.663Z,39.80
2018-07-09T11:06:20.037Z,37.80
2018-07-09T11:08:48.437Z,37.00
2018-07-09T11:11:16.724Z,38.80
2018-07-09T11:13:44.975Z,38.40
2018-07-09T11:16:13.270Z,38.80
2018-07-09T11:18:41.728Z,37.40
2018-07-09T11:21:10.137Z,37.80
2018-07-09T11:23:38.408Z,38.20
2018-07-09T11:26:06.792Z,36.90
2018-07-09T11:28:35.055Z,38.90
2018-07-09T11:31:03.368Z,40.40
2018-07-09T11:33:31.645Z,39.90
2018-07-09T11:35:59.924Z,39.80
2018-07-09T11:38:28.216Z,39.50
2018-07-09T11:40:56.556Z,39.20
2018-07-09T11:43:24.827Z,40.40
2018-07-09T11:45:53.084Z,39.80
2018-07-09T11:48:21.319Z,39.10
2018-07-09T11:50:49.586Z,37.90
2018-07-09T11:53:17.871Z,37.90
2018-07-09T11:55:46.133Z,39.40
2018-07-09T11:58:14.369Z,38.60
2018-07-09T12:00:42.685Z,35.60
2018-07-09T12:03:10.961Z,39.20
2018-07-09T12:05:39.257Z,37.50
2018-07-09T12:08:07.521Z,38.40
2018-07-09T12:10:35.792Z,37.90
2018-07-09T12:13:04.104Z,40.00
2018-07-09T12:15:32.407Z,36.80
2018-07-09T12:18:00.676Z,37.00
2018-07-09T12:20:29.012Z,37.20
2018-07-09T12:22:57.270Z,38.10
2018-07-09T12:25:25.517Z,36.90
2018-07-09T12:27:53.780Z,37.10
2018-07-09T12:30:22.080Z,36.30
2018-07-09T12:32:50.342Z,36.90
2018-07-09T12:35:18.608Z,40.20
2018-07-09T12:37:47.064Z,38.20
2018-07-09T12:40:15.356Z,38.40
2018-07-09T12:42:43.609Z,38.70
2018-07-09T12:45:11.889Z,38.90
2018-07-09T12:47:40.280Z,40.00
2018-07-09T12:50:08.541Z,38.80
2018-07-09T12:52:36.785Z,39.30
2018-07-09T12:55:05.197Z,39.10
2018-07-09T12:57:33.477Z,38.50
2018-07-09T13:00:01.735Z,39.80
2018-07-09T13:02:29.974Z,39.50
2018-07-09T13:04:58.240Z,39.00
2018-07-09T13:07:26.504Z,38.80
2018-07-09T13:09:54.772Z,38.10
2018-07-09T13:12:28.865Z,37.50
2018-07-09T13:14:58.921Z,38.30
2018-07-09T13:17:27.185Z,38.80
2018-07-09T13:19:55.535Z,39.20
2018-07-09T13:22:23.939Z,39.50
2018-07-09T13:24:52.235Z,38.90
2018-07-09T13:27:20.496Z,39.00
2018-07-09T13:29:48.793Z,39.00
2018-07-09T13:32:17.072Z,39.20
2018-07-09T13:34:45.581Z,42.20
2018-07-09T13:37:13.884Z,41.70
2018-07-09T13:39:42.175Z,37.80
2018-07-09T13:42:10.450Z,38.80
2018-07-09T13:44:38.724Z,37.40
2018-07-09T13:47:06.988Z,37.40
2018-07-09T13:49:35.280Z,38.00
2018-07-09T13:52:04.381Z,39.60
2018-07-09T13:54:32.730Z,38.00
2018-07-09T13:57:01.064Z,38.40
2018-07-09T13:59:29.380Z,38.20
2018-07-09T14:01:57.739Z,39.20
2018-07-09T14:04:25.984Z,38.90
2018-07-09T14:06:54.584Z,36.80
2018-07-09T14:09:22.908Z,37.80
2018-07-09T14:11:51.166Z,37.90
2018-07-09T14:14:19.470Z,37.30
2018-07-09T14:16:47.728Z,40.10
2018-07-09T14:19:27.253Z,39.10
2018-07-09T14:21:55.496Z,39.30
2018-07-09T14:24:23.748Z,37.40
2018-07-09T14:26:52.024Z,39.10
2018-07-09T14:29:20.300Z,39.30
2018-07-09T14:31:48.573Z,41.90
2018-07-09T14:34:16.893Z,41.10
2018-07-09T14:36:45.139Z,40.30
2018-07-09T14:39:13.445Z,39.20
2018-07-09T14:41:41.706Z,39.70
2018-07-09T14:44:09.965Z,38.60
2018-07-09T14:46:38.216Z,39.10
2018-07-09T14:49:06.512Z,38.20
2018-07-09T14:51:34.777Z,39.00
2018-07-09T14:54:03.020Z,37.60
2018-07-09T14:56:31.274Z,37.40
2018-07-09T14:58:59.532Z,37.90
2018-07-09T15:01:27.790Z,38.00
2018-07-09T15:03:56.056Z,38.20
2018-07-09T15:06:24.332Z,39.20
2018-07-09T15:08:52.589Z,42.10
2018-07-09T15:11:20.831Z,41.70
2018-07-09T15:13:49.148Z,38.50
2018-07-09T15:16:17.395Z,38.60
2018-07-09T15:18:45.660Z,38.20
2018-07-09T15:21:13.915Z,37.20
2018-07-09T15:23:42.196Z,36.00
2018-07-09T15:26:10.444Z,37.10
2018-07-09T15:28:38.699Z,36.10
2018-07-09T15:31:07.001Z,36.20
2018-07-09T15:33:35.259Z,37.70
2018-07-09T15:36:03.596Z,35.30
2018-07-09T15:38:31.788Z,34.80
2018-07-09T15:41:00.065Z,35.30
2018-07-09T15:43:41.141Z,35.60
2018-07-09T15:46:09.407Z,35.20
2018-07-09T15:48:37.673Z,36.30
2018-07-09T15:51:05.958Z,35.40
2018-07-09T15:53:34.218Z,34.10
2018-07-09T15:56:02.468Z,31.70
2018-07-09T15:58:30.748Z,30.50
2018-07-09T16:00:59.106Z,27.70
2018-07-09T16:03:27.371Z,26.90
2018-07-09T16:05:55.629Z,26.30
2018-07-09T16:08:23.904Z,26.00
2018-07-09T16:10:52.165Z,25.80
2018-07-09T16:13:20.409Z,24.60
2018-07-09T16:15:48.676Z,25.00
2018-07-09T16:18:16.924Z,22.90
2018-07-09T16:20:45.208Z,22.80
2018-07-09T16:23:13.487Z,23.40
2018-07-09T16:25:41.780Z,23.00
2018-07-09T16:30:44.622Z,22.10
2018-07-09T16:33:12.887Z,21.20
2018-07-09T16:35:41.163Z,20.90
2018-07-09T16:38:09.403Z,20.50
2018-07-09T16:40:37.680Z,21.20
2018-07-09T16:43:07.001Z,23.80
2018-07-09T16:45:35.293Z,25.30
2018-07-09T16:48:03.604Z,26.30
2018-07-09T16:50:31.883Z,25.50
2018-07-09T16:53:00.154Z,26.00
2018-07-09T16:55:28.432Z,26.50
2018-07-09T16:57:56.714Z,27.80
2018-07-09T17:00:25.036Z,27.80
2018-07-09T17:02:53.328Z,24.40
2018-07-09T17:05:21.584Z,24.40
2018-07-09T17:07:49.934Z,24.60
2018-07-09T17:10:18.195Z,24.30
2018-07-09T17:12:46.463Z,23.40
2018-07-09T17:15:14.712Z,24.00
2018-07-09T17:17:42.960Z,24.50
2018-07-09T17:20:11.312Z,23.00
2018-07-09T17:22:39.566Z,22.40
2018-07-09T17:25:07.856Z,21.90
2018-07-09T17:27:36.236Z,21.90
2018-07-09T17:30:04.553Z,21.10
2018-07-09T17:32:32.873Z,21.40
2018-07-09T17:35:01.078Z,20.70
2018-07-09T17:37:29.405Z,21.40
2018-07-09T17:39:57.672Z,21.90
2018-07-09T17:42:25.927Z,22.40
2018-07-09T17:44:54.181Z,22.90
2018-07-09T17:47:22.488Z,23.60
2018-07-09T17:49:50.977Z,25.30
2018-07-09T17:52:19.180Z,27.70
2018-07-09T17:54:47.432Z,29.90
2018-07-09T17:57:15.684Z,31.10
2018-07-09T17:59:43.936Z,32.80
2018-07-09T18:02:12.244Z,32.40
2018-07-09T18:04:40.512Z,34.00
2018-07-09T18:07:08.784Z,34.90
2018-07-09T18:09:37.073Z,35.50
2018-07-09T18:12:05.365Z,35.40
2018-07-09T18:14:33.648Z,35.80
2018-07-09T18:17:01.896Z,35.30
2018-07-09T18:19:30.187Z,34.80
2018-07-09T18:21:58.444Z,35.00
2018-07-09T18:24:26.701Z,34.80
2018-07-09T18:26:54.969Z,35.40
2018-07-09T18:29:23.220Z,35.40
2018-07-09T18:31:51.503Z,34.90
2018-07-09T18:34:19.784Z,36.40
2018-07-09T18:36:48.072Z,37.40
2018-07-09T18:39:16.336Z,38.70
2018-07-09T18:41:44.608Z,39.50
2018-07-09T18:44:12.852Z,40.40
2018-07-09T18:46:41.117Z,40.80
2018-07-09T18:49:09.373Z,42.20
2018-07-09T18:51:37.619Z,43.40
2018-07-09T18:54:05.911Z,44.40
2018-07-09T18:56:34.188Z,44.20
2018-07-09T18:59:02.477Z,45.20
2018-07-09T19:01:30.720Z,46.20
2018-07-09T19:03:58.996Z,46.50
2018-07-09T19:06:42.229Z,48.60
2018-07-09T19:09:10.525Z,47.80
2018-07-09T19:11:38.929Z,47.60
2018-07-09T19:14:07.465Z,48.20
2018-07-09T19:16:45.629Z,48.90
2018-07-09T19:19:25.156Z,49.10
2018-07-09T19:21:59.530Z,50.10
2018-07-09T19:24:26.741Z,52.70
2018-07-09T19:26:54.238Z,50.80
2018-07-09T19:29:21.451Z,50.80
2018-07-09T19:31:48.689Z,51.80
2018-07-09T19:34:15.909Z,51.70
2018-07-09T19:36:43.183Z,53.50
2018-07-09T19:39:11.172Z,54.90
2018-07-09T19:41:38.429Z,53.90
2018-07-09T19:44:05.641Z,53.20
2018-07-09T19:46:32.854Z,53.10
2018-07-09T19:49:00.097Z,53.30
2018-07-09T19:51:27.309Z,54.00
2018-07-09T19:53:54.530Z,53.80
2018-07-09T19:56:21.753Z,54.60
2018-07-09T19:58:49.050Z,55.70
2018-07-09T20:01:16.260Z,56.00
2018-07-09T20:03:43.471Z,55.70
2018-07-09T20:06:10.685Z,55.60
2018-07-09T20:08:43.310Z,56.50
2018-07-09T20:11:15.751Z,56.50
2018-07-09T20:13:51.076Z,57.00
2018-07-09T20:16:23.678Z,56.80
2018-07-09T20:18:52.479Z,58.30
2018-07-09T20:21:20.047Z,58.70
2018-07-09T20:23:47.289Z,58.80
2018-07-09T20:26:14.508Z,58.50
2018-07-09T20:28:41.744Z,59.10
2018-07-09T20:31:08.964Z,58.80
2018-07-09T20:33:36.171Z,58.40
2018-07-09T20:36:03.458Z,59.10
2018-07-09T20:38:30.742Z,58.90
2018-07-09T20:40:57.969Z,58.80
2018-07-09T20:43:25.163Z,59.90
2018-07-09T20:45:52.429Z,60.60
2018-07-09T20:48:19.640Z,61.00
2018-07-09T20:50:46.971Z,60.50
2018-07-09T20:53:14.185Z,60.80
2018-07-09T20:55:41.412Z,61.60
2018-07-09T20:58:08.640Z,62.40
2018-07-09T21:00:35.853Z,60.60
2018-07-09T21:03:03.060Z,61.20
2018-07-09T21:05:30.277Z,61.40
2018-07-09T21:07:57.491Z,62.10
2018-07-09T21:10:24.688Z,62.60
2018-07-09T21:12:55.796Z,63.00
2018-07-09T21:15:23.706Z,65.00
2018-07-09T21:17:50.720Z,71.60
2018-07-09T21:20:18.396Z,69.60
2018-07-09T21:22:45.920Z,67.60
2018-07-09T21:25:13.312Z,66.40
2018-07-09T21:27:40.836Z,65.30
2018-07-09T21:30:08.058Z,64.10
2018-07-09T21:32:35.280Z,64.20
2018-07-09T21:35:02.590Z,64.30
2018-07-09T21:37:29.910Z,64.50
2018-07-09T21:39:57.016Z,65.60
2018-07-09T21:42:24.252Z,65.80
2018-07-09T21:44:51.460Z,67.20
2018-07-09T21:47:18.668Z,64.90
2018-07-09T21:49:45.880Z,65.60
2018-07-09T21:52:13.131Z,66.80
2018-07-09T21:54:40.339Z,68.80
2018-07-09T21:57:07.556Z,69.00
2018-07-09T21:59:34.767Z,69.40
2018-07-09T22:02:02.144Z,69.50
2018-07-09T22:04:29.370Z,70.00
2018-07-09T22:06:56.592Z,69.50
2018-07-09T22:09:23.805Z,69.20
2018-07-09T22:11:51.019Z,68.20
2018-07-09T22:14:18.228Z,67.20
2018-07-09T22:16:45.445Z,65.20
2018-07-09T22:19:12.684Z,65.30
2018-07-09T22:21:39.912Z,66.20
2018-07-09T22:24:07.128Z,66.70
2018-07-09T22:26:34.345Z,67.50
2018-07-09T22:29:01.611Z,67.80
2018-07-09T22:31:29.856Z,68.40
2018-07-09T22:33:58.108Z,68.50
2018-07-09T22:36:26.375Z,68.70
2018-07-09T22:38:54.672Z,69.80
2018-07-09T22:41:22.925Z,70.20
2018-07-09T22:44:02.483Z,71.60
2018-07-09T22:46:30.758Z,72.80
2018-07-09T22:48:59.029Z,71.70
2018-07-09T22:51:27.284Z,72.00
2018-07-09T22:53:55.532Z,71.60
2018-07-09T22:56:23.780Z,72.30
2018-07-09T22:58:52.112Z,74.00
2018-07-09T23:01:20.374Z,74.50
2018-07-09T23:03:48.661Z,73.40
2018-07-09T23:06:16.936Z,74.00
2018-07-09T23:08:45.238Z,74.10
2018-07-09T23:13:33.327Z,73.90
2018-07-09T23:18:14.610Z,74.20
2018-07-09T23:20:54.081Z,75.10
2018-07-09T23:23:21.288Z,74.40
2018-07-09T23:25:48.508Z,75.20
2018-07-09T23:28:15.744Z,75.30
2018-07-09T23:30:42.962Z,75.70
2018-07-09T23:33:10.173Z,76.70
2018-07-09T23:35:37.376Z,76.70
2018-07-09T23:38:04.597Z,77.30
2018-07-09T23:40:31.810Z,76.80
2018-07-09T23:42:59.020Z,77.10
2018-07-09T23:45:26.233Z,77.20
2018-07-09T23:47:53.445Z,77.40
2018-07-09T23:50:20.670Z,77.00
2018-07-09T23:52:47.882Z,76.20
2018-07-09T23:55:15.122Z,76.80
